sensor_id;sensor_type;location;lat;lon;timestamp;P1;durP1;ratioP1;P2;durP2;ratioP2
59824;SDS011;45703;50.898;6.054;2023-07-24T00:01:53;6.57;;;2.80;;
59824;SDS011;45703;50.898;6.054;2023-07-24T00:04:18;7.32;;;3.13;;
59824;SDS011;45703;50.898;6.054;2023-07-24T00:06:44;7.30;;;2.80;;
59824;SDS011;45703;50.898;6.054;2023-07-24T00:09:09;7.03;;;2.75;;
59824;SDS011;45703;50.898;6.054;2023-07-24T00:11:34;7.28;;;2.88;;
59824;SDS011;45703;50.898;6.054;2023-07-24T00:14:00;7.00;;;3.10;;
59824;SDS011;45703;50.898;6.054;2023-07-24T00:16:25;7.07;;;2.85;;
59824;SDS011;45703;50.898;6.054;2023-07-24T00:18:50;6.47;;;2.63;;
59824;SDS011;45703;50.898;6.054;2023-07-24T00:21:16;9.57;;;2.90;;
59824;SDS011;45703;50.898;6.054;2023-07-24T00:23:41;7.10;;;3.13;;
59824;SDS011;45703;50.898;6.054;2023-07-24T00:26:07;7.60;;;3.03;;
59824;SDS011;45703;50.898;6.054;2023-07-24T00:28:32;7.53;;;3.42;;
59824;SDS011;45703;50.898;6.054;2023-07-24T00:30:58;7.10;;;3.10;;
59824;SDS011;45703;50.898;6.054;2023-07-24T00:33:23;8.52;;;3.15;;
59824;SDS011;45703;50.898;6.054;2023-07-24T00:35:49;6.35;;;2.80;;
59824;SDS011;45703;50.898;6.054;2023-07-24T00:38:14;6.53;;;2.70;;
59824;SDS011;45703;50.898;6.054;2023-07-24T00:40:39;6.85;;;2.78;;
59824;SDS011;45703;50.898;6.054;2023-07-24T00:43:05;7.72;;;3.25;;
59824;SDS011;45703;50.898;6.054;2023-07-24T00:45:30;7.63;;;2.58;;
59824;SDS011;45703;50.898;6.054;2023-07-24T00:47:56;6.63;;;3.13;;
59824;SDS011;45703;50.898;6.054;2023-07-24T00:50:22;7.18;;;3.10;;
59824;SDS011;45703;50.898;6.054;2023-07-24T00:52:48;6.93;;;2.85;;
59824;SDS011;45703;50.898;6.054;2023-07-24T00:55:13;8.02;;;2.97;;
59824;SDS011;45703;50.898;6.054;2023-07-24T00:57:41;8.07;;;3.13;;
59824;SDS011;45703;50.898;6.054;2023-07-24T01:00:07;6.78;;;3.05;;
59824;SDS011;45703;50.898;6.054;2023-07-24T01:02:33;9.02;;;3.60;;
59824;SDS011;45703;50.898;6.054;2023-07-24T01:04:59;8.65;;;3.28;;
59824;SDS011;45703;50.898;6.054;2023-07-24T01:07:25;7.78;;;3.13;;
59824;SDS011;45703;50.898;6.054;2023-07-24T01:09:50;7.13;;;3.17;;
59824;SDS011;45703;50.898;6.054;2023-07-24T01:12:20;6.90;;;3.03;;
59824;SDS011;45703;50.898;6.054;2023-07-24T01:14:54;7.03;;;2.90;;
59824;SDS011;45703;50.898;6.054;2023-07-24T01:17:44;7.97;;;3.22;;
59824;SDS011;45703;50.898;6.054;2023-07-24T01:28:00;6.90;;;3.08;;
59824;SDS011;45703;50.898;6.054;2023-07-24T01:30:26;9.00;;;2.92;;
59824;SDS011;45703;50.898;6.054;2023-07-24T01:32:51;7.80;;;3.15;;
59824;SDS011;45703;50.898;6.054;2023-07-24T01:35:17;7.38;;;3.20;;
59824;SDS011;45703;50.898;6.054;2023-07-24T01:37:43;6.85;;;2.80;;
59824;SDS011;45703;50.898;6.054;2023-07-24T01:40:08;7.75;;;3.10;;
59824;SDS011;45703;50.898;6.054;2023-07-24T01:42:35;8.40;;;3.28;;
59824;SDS011;45703;50.898;6.054;2023-07-24T01:45:02;8.35;;;3.25;;
59824;SDS011;45703;50.898;6.054;2023-07-24T01:47:28;7.95;;;3.20;;
59824;SDS011;45703;50.898;6.054;2023-07-24T01:49:54;7.18;;;3.05;;
59824;SDS011;45703;50.898;6.054;2023-07-24T01:52:20;7.72;;;3.22;;
59824;SDS011;45703;50.898;6.054;2023-07-24T01:54:46;7.38;;;2.95;;
59824;SDS011;45703;50.898;6.054;2023-07-24T01:57:11;7.13;;;2.78;;
59824;SDS011;45703;50.898;6.054;2023-07-24T01:59:36;8.38;;;3.13;;
59824;SDS011;45703;50.898;6.054;2023-07-24T02:02:02;7.85;;;3.20;;
59824;SDS011;45703;50.898;6.054;2023-07-24T02:04:27;7.03;;;2.85;;
59824;SDS011;45703;50.898;6.054;2023-07-24T02:06:53;7.88;;;3.38;;
59824;SDS011;45703;50.898;6.054;2023-07-24T02:09:18;7.63;;;3.10;;
59824;SDS011;45703;50.898;6.054;2023-07-24T02:11:44;8.35;;;3.75;;
59824;SDS011;45703;50.898;6.054;2023-07-24T02:14:11;9.02;;;3.70;;
59824;SDS011;45703;50.898;6.054;2023-07-24T02:16:37;8.90;;;3.95;;
59824;SDS011;45703;50.898;6.054;2023-07-24T02:19:02;10.60;;;3.80;;
59824;SDS011;45703;50.898;6.054;2023-07-24T02:21:28;9.07;;;4.05;;
59824;SDS011;45703;50.898;6.054;2023-07-24T02:23:53;10.68;;;3.80;;
59824;SDS011;45703;50.898;6.054;2023-07-24T02:26:19;9.30;;;3.70;;
59824;SDS011;45703;50.898;6.054;2023-07-24T02:28:44;8.05;;;3.80;;
59824;SDS011;45703;50.898;6.054;2023-07-24T02:31:09;8.45;;;3.40;;
59824;SDS011;45703;50.898;6.054;2023-07-24T02:33:35;7.85;;;3.50;;
59824;SDS011;45703;50.898;6.054;2023-07-24T02:36:00;9.55;;;3.90;;
59824;SDS011;45703;50.898;6.054;2023-07-24T02:38:26;8.95;;;3.80;;
59824;SDS011;45703;50.898;6.054;2023-07-24T02:40:52;9.27;;;4.25;;
59824;SDS011;45703;50.898;6.054;2023-07-24T02:43:17;9.73;;;4.35;;
59824;SDS011;45703;50.898;6.054;2023-07-24T02:45:43;8.32;;;4.03;;
59824;SDS011;45703;50.898;6.054;2023-07-24T02:48:08;9.02;;;4.22;;
59824;SDS011;45703;50.898;6.054;2023-07-24T02:50:33;8.73;;;4.07;;
59824;SDS011;45703;50.898;6.054;2023-07-24T02:52:59;8.35;;;4.15;;
59824;SDS011;45703;50.898;6.054;2023-07-24T02:55:24;8.20;;;3.85;;
59824;SDS011;45703;50.898;6.054;2023-07-24T02:57:50;8.52;;;3.58;;
59824;SDS011;45703;50.898;6.054;2023-07-24T03:00:15;7.97;;;3.60;;
59824;SDS011;45703;50.898;6.054;2023-07-24T03:02:41;9.75;;;3.67;;
59824;SDS011;45703;50.898;6.054;2023-07-24T03:05:06;7.72;;;3.58;;
59824;SDS011;45703;50.898;6.054;2023-07-24T03:07:32;7.70;;;3.40;;
59824;SDS011;45703;50.898;6.054;2023-07-24T03:09:58;9.05;;;3.72;;
59824;SDS011;45703;50.898;6.054;2023-07-24T03:12:23;9.20;;;3.75;;
59824;SDS011;45703;50.898;6.054;2023-07-24T03:14:49;8.00;;;3.65;;
59824;SDS011;45703;50.898;6.054;2023-07-24T03:17:14;8.48;;;3.80;;
59824;SDS011;45703;50.898;6.054;2023-07-24T03:19:40;8.32;;;3.83;;
59824;SDS011;45703;50.898;6.054;2023-07-24T03:22:06;8.25;;;3.45;;
59824;SDS011;45703;50.898;6.054;2023-07-24T03:24:32;8.13;;;3.60;;
59824;SDS011;45703;50.898;6.054;2023-07-24T03:26:58;8.32;;;3.42;;
59824;SDS011;45703;50.898;6.054;2023-07-24T03:29:25;9.50;;;4.22;;
59824;SDS011;45703;50.898;6.054;2023-07-24T03:31:51;8.48;;;3.85;;
59824;SDS011;45703;50.898;6.054;2023-07-24T03:34:16;9.13;;;3.50;;
59824;SDS011;45703;50.898;6.054;2023-07-24T03:36:41;7.72;;;3.60;;
59824;SDS011;45703;50.898;6.054;2023-07-24T03:39:08;8.73;;;3.90;;
59824;SDS011;45703;50.898;6.054;2023-07-24T03:41:34;8.35;;;3.30;;
59824;SDS011;45703;50.898;6.054;2023-07-24T03:44:00;10.30;;;4.00;;
59824;SDS011;45703;50.898;6.054;2023-07-24T03:46:25;8.63;;;3.92;;
59824;SDS011;45703;50.898;6.054;2023-07-24T03:48:50;7.93;;;3.58;;
59824;SDS011;45703;50.898;6.054;2023-07-24T03:51:16;8.18;;;3.72;;
59824;SDS011;45703;50.898;6.054;2023-07-24T03:53:42;8.20;;;3.28;;
59824;SDS011;45703;50.898;6.054;2023-07-24T03:56:07;7.75;;;3.78;;
59824;SDS011;45703;50.898;6.054;2023-07-24T03:58:33;9.57;;;3.88;;
59824;SDS011;45703;50.898;6.054;2023-07-24T04:00:58;7.97;;;3.55;;
59824;SDS011;45703;50.898;6.054;2023-07-24T04:03:24;9.27;;;4.00;;
59824;SDS011;45703;50.898;6.054;2023-07-24T04:05:49;8.13;;;3.58;;
59824;SDS011;45703;50.898;6.054;2023-07-24T04:08:15;8.18;;;3.88;;
59824;SDS011;45703;50.898;6.054;2023-07-24T04:10:40;9.15;;;4.00;;
59824;SDS011;45703;50.898;6.054;2023-07-24T04:13:05;9.65;;;4.03;;
59824;SDS011;45703;50.898;6.054;2023-07-24T04:15:31;10.07;;;4.28;;
59824;SDS011;45703;50.898;6.054;2023-07-24T04:17:56;8.43;;;3.88;;
59824;SDS011;45703;50.898;6.054;2023-07-24T04:20:21;8.90;;;4.13;;
59824;SDS011;45703;50.898;6.054;2023-07-24T04:22:47;8.80;;;4.10;;
59824;SDS011;45703;50.898;6.054;2023-07-24T04:25:12;8.50;;;3.95;;
59824;SDS011;45703;50.898;6.054;2023-07-24T04:27:37;9.68;;;3.97;;
59824;SDS011;45703;50.898;6.054;2023-07-24T04:30:03;7.88;;;3.67;;
59824;SDS011;45703;50.898;6.054;2023-07-24T04:32:29;7.88;;;4.00;;
59824;SDS011;45703;50.898;6.054;2023-07-24T04:34:54;8.93;;;3.33;;
59824;SDS011;45703;50.898;6.054;2023-07-24T04:37:19;9.50;;;4.15;;
59824;SDS011;45703;50.898;6.054;2023-07-24T04:39:45;8.40;;;3.58;;
59824;SDS011;45703;50.898;6.054;2023-07-24T04:42:10;8.18;;;3.95;;
59824;SDS011;45703;50.898;6.054;2023-07-24T04:44:36;8.75;;;3.47;;
59824;SDS011;45703;50.898;6.054;2023-07-24T04:47:01;8.95;;;4.28;;
59824;SDS011;45703;50.898;6.054;2023-07-24T04:49:30;8.10;;;3.97;;
59824;SDS011;45703;50.898;6.054;2023-07-24T04:51:57;7.78;;;3.60;;
59824;SDS011;45703;50.898;6.054;2023-07-24T04:54:25;8.40;;;4.10;;
59824;SDS011;45703;50.898;6.054;2023-07-24T04:56:51;9.80;;;4.00;;
59824;SDS011;45703;50.898;6.054;2023-07-24T04:59:16;9.30;;;3.65;;
59824;SDS011;45703;50.898;6.054;2023-07-24T05:01:42;8.20;;;3.70;;
59824;SDS011;45703;50.898;6.054;2023-07-24T05:04:07;8.98;;;3.55;;
59824;SDS011;45703;50.898;6.054;2023-07-24T05:06:33;8.80;;;3.30;;
59824;SDS011;45703;50.898;6.054;2023-07-24T05:09:00;7.78;;;3.40;;
59824;SDS011;45703;50.898;6.054;2023-07-24T05:11:26;8.90;;;3.53;;
59824;SDS011;45703;50.898;6.054;2023-07-24T05:13:51;7.82;;;3.33;;
59824;SDS011;45703;50.898;6.054;2023-07-24T05:16:17;8.30;;;3.50;;
59824;SDS011;45703;50.898;6.054;2023-07-24T05:18:42;8.02;;;3.30;;
59824;SDS011;45703;50.898;6.054;2023-07-24T05:21:07;8.18;;;3.42;;
59824;SDS011;45703;50.898;6.054;2023-07-24T05:23:33;7.63;;;2.72;;
59824;SDS011;45703;50.898;6.054;2023-07-24T05:25:59;7.80;;;3.13;;
59824;SDS011;45703;50.898;6.054;2023-07-24T05:28:26;9.25;;;3.15;;
59824;SDS011;45703;50.898;6.054;2023-07-24T05:30:55;9.25;;;3.25;;
59824;SDS011;45703;50.898;6.054;2023-07-24T05:33:20;8.05;;;3.10;;
59824;SDS011;45703;50.898;6.054;2023-07-24T05:35:46;7.43;;;3.13;;
59824;SDS011;45703;50.898;6.054;2023-07-24T05:38:13;8.32;;;3.20;;
59824;SDS011;45703;50.898;6.054;2023-07-24T05:40:38;7.85;;;2.80;;
59824;SDS011;45703;50.898;6.054;2023-07-24T05:43:03;7.93;;;3.00;;
59824;SDS011;45703;50.898;6.054;2023-07-24T05:45:29;7.70;;;3.20;;
59824;SDS011;45703;50.898;6.054;2023-07-24T05:47:54;8.15;;;3.17;;
59824;SDS011;45703;50.898;6.054;2023-07-24T05:50:19;7.82;;;2.83;;
59824;SDS011;45703;50.898;6.054;2023-07-24T05:52:45;7.07;;;2.72;;
59824;SDS011;45703;50.898;6.054;2023-07-24T05:55:10;7.32;;;3.10;;
59824;SDS011;45703;50.898;6.054;2023-07-24T05:57:37;8.68;;;3.08;;
59824;SDS011;45703;50.898;6.054;2023-07-24T06:00:03;8.05;;;2.70;;
59824;SDS011;45703;50.898;6.054;2023-07-24T06:02:32;7.85;;;2.60;;
59824;SDS011;45703;50.898;6.054;2023-07-24T06:04:57;7.88;;;2.83;;
59824;SDS011;45703;50.898;6.054;2023-07-24T06:07:23;7.82;;;2.90;;
59824;SDS011;45703;50.898;6.054;2023-07-24T06:09:48;8.75;;;3.10;;
59824;SDS011;45703;50.898;6.054;2023-07-24T06:12:14;7.60;;;2.92;;
59824;SDS011;45703;50.898;6.054;2023-07-24T06:14:39;7.72;;;3.03;;
59824;SDS011;45703;50.898;6.054;2023-07-24T06:17:04;6.93;;;2.80;;
59824;SDS011;45703;50.898;6.054;2023-07-24T06:19:30;7.60;;;2.55;;
59824;SDS011;45703;50.898;6.054;2023-07-24T06:21:55;7.28;;;2.55;;
59824;SDS011;45703;50.898;6.054;2023-07-24T06:24:21;6.55;;;2.63;;
59824;SDS011;45703;50.898;6.054;2023-07-24T06:26:48;7.60;;;3.03;;
59824;SDS011;45703;50.898;6.054;2023-07-24T06:29:14;8.13;;;2.65;;
59824;SDS011;45703;50.898;6.054;2023-07-24T06:31:39;7.57;;;2.75;;
59824;SDS011;45703;50.898;6.054;2023-07-24T06:34:05;6.75;;;2.83;;
59824;SDS011;45703;50.898;6.054;2023-07-24T06:36:30;7.47;;;2.58;;
59824;SDS011;45703;50.898;6.054;2023-07-24T06:38:55;5.72;;;2.00;;
59824;SDS011;45703;50.898;6.054;2023-07-24T06:41:21;6.38;;;2.10;;
59824;SDS011;45703;50.898;6.054;2023-07-24T06:43:48;7.47;;;2.70;;
59824;SDS011;45703;50.898;6.054;2023-07-24T06:46:13;7.82;;;2.90;;
59824;SDS011;45703;50.898;6.054;2023-07-24T06:48:39;7.68;;;2.67;;
59824;SDS011;45703;50.898;6.054;2023-07-24T06:51:04;6.63;;;2.38;;
59824;SDS011;45703;50.898;6.054;2023-07-24T06:53:30;7.20;;;2.90;;
59824;SDS011;45703;50.898;6.054;2023-07-24T06:55:55;7.18;;;2.50;;
59824;SDS011;45703;50.898;6.054;2023-07-24T06:58:20;6.97;;;2.47;;
59824;SDS011;45703;50.898;6.054;2023-07-24T07:00:46;7.32;;;2.70;;
59824;SDS011;45703;50.898;6.054;2023-07-24T07:03:11;6.75;;;2.60;;
59824;SDS011;45703;50.898;6.054;2023-07-24T07:05:37;6.65;;;2.53;;
59824;SDS011;45703;50.898;6.054;2023-07-24T07:08:02;7.65;;;2.83;;
59824;SDS011;45703;50.898;6.054;2023-07-24T07:10:27;8.55;;;2.80;;
59824;SDS011;45703;50.898;6.054;2023-07-24T07:12:53;7.18;;;2.85;;
59824;SDS011;45703;50.898;6.054;2023-07-24T07:15:18;7.78;;;3.03;;
59824;SDS011;45703;50.898;6.054;2023-07-24T07:17:44;7.75;;;2.80;;
59824;SDS011;45703;50.898;6.054;2023-07-24T07:20:09;6.95;;;2.70;;
59824;SDS011;45703;50.898;6.054;2023-07-24T07:22:34;7.15;;;2.90;;
59824;SDS011;45703;50.898;6.054;2023-07-24T07:25:00;8.18;;;3.13;;
59824;SDS011;45703;50.898;6.054;2023-07-24T07:27:25;7.55;;;2.80;;
59824;SDS011;45703;50.898;6.054;2023-07-24T07:29:51;8.27;;;3.20;;
59824;SDS011;45703;50.898;6.054;2023-07-24T07:32:16;7.22;;;3.05;;
59824;SDS011;45703;50.898;6.054;2023-07-24T07:34:41;7.78;;;2.70;;
59824;SDS011;45703;50.898;6.054;2023-07-24T07:37:07;7.43;;;2.75;;
59824;SDS011;45703;50.898;6.054;2023-07-24T07:39:32;7.18;;;2.72;;
59824;SDS011;45703;50.898;6.054;2023-07-24T07:41:58;7.53;;;2.90;;
59824;SDS011;45703;50.898;6.054;2023-07-24T07:44:23;8.63;;;3.42;;
59824;SDS011;45703;50.898;6.054;2023-07-24T07:46:49;8.07;;;3.10;;
59824;SDS011;45703;50.898;6.054;2023-07-24T07:49:14;7.55;;;3.00;;
59824;SDS011;45703;50.898;6.054;2023-07-24T07:51:39;7.22;;;2.60;;
59824;SDS011;45703;50.898;6.054;2023-07-24T07:54:05;7.57;;;2.95;;
59824;SDS011;45703;50.898;6.054;2023-07-24T07:56:33;9.68;;;2.78;;
59824;SDS011;45703;50.898;6.054;2023-07-24T07:58:59;7.82;;;3.20;;
59824;SDS011;45703;50.898;6.054;2023-07-24T08:01:24;8.02;;;3.35;;
59824;SDS011;45703;50.898;6.054;2023-07-24T08:03:50;7.60;;;3.05;;
59824;SDS011;45703;50.898;6.054;2023-07-24T08:06:15;7.20;;;3.10;;
59824;SDS011;45703;50.898;6.054;2023-07-24T08:08:50;7.55;;;3.50;;
59824;SDS011;45703;50.898;6.054;2023-07-24T08:11:16;7.43;;;2.60;;
59824;SDS011;45703;50.898;6.054;2023-07-24T08:13:44;7.40;;;2.58;;
59824;SDS011;45703;50.898;6.054;2023-07-24T08:16:14;6.72;;;2.88;;
59824;SDS011;45703;50.898;6.054;2023-07-24T08:18:46;6.72;;;2.63;;
59824;SDS011;45703;50.898;6.054;2023-07-24T08:21:14;6.28;;;2.45;;
59824;SDS011;45703;50.898;6.054;2023-07-24T08:23:46;6.75;;;2.38;;
59824;SDS011;45703;50.898;6.054;2023-07-24T08:26:13;7.40;;;2.35;;
59824;SDS011;45703;50.898;6.054;2023-07-24T08:28:39;6.95;;;2.40;;
59824;SDS011;45703;50.898;6.054;2023-07-24T08:31:07;7.70;;;2.40;;
59824;SDS011;45703;50.898;6.054;2023-07-24T08:33:35;7.88;;;2.58;;
59824;SDS011;45703;50.898;6.054;2023-07-24T08:36:01;8.23;;;2.90;;
59824;SDS011;45703;50.898;6.054;2023-07-24T08:38:33;6.25;;;2.13;;
59824;SDS011;45703;50.898;6.054;2023-07-24T08:41:00;6.78;;;2.20;;
59824;SDS011;45703;50.898;6.054;2023-07-24T08:43:28;7.32;;;2.38;;
59824;SDS011;45703;50.898;6.054;2023-07-24T08:45:59;6.67;;;2.63;;
59824;SDS011;45703;50.898;6.054;2023-07-24T08:48:29;6.38;;;2.30;;
59824;SDS011;45703;50.898;6.054;2023-07-24T08:50:58;6.32;;;2.40;;
59824;SDS011;45703;50.898;6.054;2023-07-24T08:53:28;7.95;;;2.30;;
59824;SDS011;45703;50.898;6.054;2023-07-24T08:55:55;6.95;;;2.00;;
59824;SDS011;45703;50.898;6.054;2023-07-24T08:58:21;7.68;;;2.40;;
59824;SDS011;45703;50.898;6.054;2023-07-24T09:00:49;6.72;;;2.15;;
59824;SDS011;45703;50.898;6.054;2023-07-24T09:03:16;5.65;;;1.98;;
59824;SDS011;45703;50.898;6.054;2023-07-24T09:05:43;6.15;;;2.10;;
59824;SDS011;45703;50.898;6.054;2023-07-24T09:08:09;6.03;;;2.00;;
59824;SDS011;45703;50.898;6.054;2023-07-24T09:10:35;7.60;;;2.10;;
59824;SDS011;45703;50.898;6.054;2023-07-24T09:13:02;6.20;;;2.00;;
59824;SDS011;45703;50.898;6.054;2023-07-24T09:15:29;6.55;;;2.10;;
59824;SDS011;45703;50.898;6.054;2023-07-24T09:18:04;6.88;;;2.40;;
59824;SDS011;45703;50.898;6.054;2023-07-24T09:20:37;8.60;;;2.70;;
59824;SDS011;45703;50.898;6.054;2023-07-24T09:23:06;7.22;;;2.58;;
59824;SDS011;45703;50.898;6.054;2023-07-24T09:25:36;6.25;;;2.00;;
59824;SDS011;45703;50.898;6.054;2023-07-24T09:28:10;6.63;;;2.25;;
59824;SDS011;45703;50.898;6.054;2023-07-24T09:30:39;6.78;;;2.40;;
59824;SDS011;45703;50.898;6.054;2023-07-24T09:33:05;6.85;;;2.03;;
59824;SDS011;45703;50.898;6.054;2023-07-24T09:35:31;6.00;;;2.00;;
59824;SDS011;45703;50.898;6.054;2023-07-24T09:40:37;6.88;;;2.28;;
59824;SDS011;45703;50.898;6.054;2023-07-24T09:43:19;6.32;;;2.30;;
59824;SDS011;45703;50.898;6.054;2023-07-24T09:45:46;7.17;;;2.50;;
59824;SDS011;45703;50.898;6.054;2023-07-24T09:48:14;6.60;;;2.40;;
59824;SDS011;45703;50.898;6.054;2023-07-24T09:50:41;6.63;;;2.38;;
59824;SDS011;45703;50.898;6.054;2023-07-24T09:53:31;7.30;;;2.55;;
59824;SDS011;45703;50.898;6.054;2023-07-24T09:56:17;6.43;;;2.22;;
59824;SDS011;45703;50.898;6.054;2023-07-24T09:58:43;6.80;;;2.80;;
59824;SDS011;45703;50.898;6.054;2023-07-24T10:01:10;6.47;;;2.60;;
59824;SDS011;45703;50.898;6.054;2023-07-24T10:03:37;6.55;;;2.38;;
59824;SDS011;45703;50.898;6.054;2023-07-24T10:06:04;6.45;;;2.65;;
59824;SDS011;45703;50.898;6.054;2023-07-24T10:08:30;6.88;;;2.65;;
59824;SDS011;45703;50.898;6.054;2023-07-24T10:10:56;6.40;;;2.72;;
59824;SDS011;45703;50.898;6.054;2023-07-24T10:13:25;7.80;;;2.95;;
59824;SDS011;45703;50.898;6.054;2023-07-24T10:15:52;7.30;;;2.78;;
59824;SDS011;45703;50.898;6.054;2023-07-24T10:18:17;5.95;;;2.50;;
59824;SDS011;45703;50.898;6.054;2023-07-24T10:20:59;6.97;;;2.35;;
59824;SDS011;45703;50.898;6.054;2023-07-24T10:23:26;6.50;;;2.55;;
59824;SDS011;45703;50.898;6.054;2023-07-24T10:25:51;7.55;;;3.40;;
59824;SDS011;45703;50.898;6.054;2023-07-24T10:28:17;8.05;;;2.90;;
59824;SDS011;45703;50.898;6.054;2023-07-24T10:30:43;7.40;;;2.90;;
59824;SDS011;45703;50.898;6.054;2023-07-24T10:33:10;6.45;;;2.60;;
59824;SDS011;45703;50.898;6.054;2023-07-24T10:35:46;6.97;;;2.97;;
59824;SDS011;45703;50.898;6.054;2023-07-24T10:38:13;7.40;;;3.15;;
59824;SDS011;45703;50.898;6.054;2023-07-24T10:40:41;7.00;;;2.95;;
59824;SDS011;45703;50.898;6.054;2023-07-24T10:43:11;7.65;;;3.15;;
59824;SDS011;45703;50.898;6.054;2023-07-24T10:45:42;7.05;;;2.97;;
59824;SDS011;45703;50.898;6.054;2023-07-24T10:48:18;8.25;;;3.55;;
59824;SDS011;45703;50.898;6.054;2023-07-24T10:50:46;7.75;;;3.28;;
59824;SDS011;45703;50.898;6.054;2023-07-24T10:53:13;8.77;;;3.60;;
59824;SDS011;45703;50.898;6.054;2023-07-24T10:55:41;8.35;;;3.65;;
59824;SDS011;45703;50.898;6.054;2023-07-24T10:58:07;8.93;;;3.75;;
59824;SDS011;45703;50.898;6.054;2023-07-24T11:00:33;8.88;;;3.58;;
59824;SDS011;45703;50.898;6.054;2023-07-24T11:02:58;8.20;;;3.80;;
59824;SDS011;45703;50.898;6.054;2023-07-24T11:05:24;8.35;;;4.25;;
59824;SDS011;45703;50.898;6.054;2023-07-24T11:07:49;9.57;;;3.90;;
59824;SDS011;45703;50.898;6.054;2023-07-24T11:10:21;7.60;;;3.88;;
59824;SDS011;45703;50.898;6.054;2023-07-24T11:12:48;8.07;;;3.95;;
59824;SDS011;45703;50.898;6.054;2023-07-24T11:15:15;8.07;;;3.67;;
59824;SDS011;45703;50.898;6.054;2023-07-24T11:17:41;8.40;;;3.78;;
59824;SDS011;45703;50.898;6.054;2023-07-24T11:20:08;7.97;;;3.30;;
59824;SDS011;45703;50.898;6.054;2023-07-24T11:22:41;6.28;;;1.92;;
59824;SDS011;45703;50.898;6.054;2023-07-24T11:25:09;5.60;;;1.75;;
59824;SDS011;45703;50.898;6.054;2023-07-24T11:27:44;6.35;;;1.80;;
59824;SDS011;45703;50.898;6.054;2023-07-24T11:30:12;6.20;;;1.63;;
59824;SDS011;45703;50.898;6.054;2023-07-24T11:32:43;5.03;;;1.45;;
59824;SDS011;45703;50.898;6.054;2023-07-24T11:35:10;5.22;;;1.50;;
59824;SDS011;45703;50.898;6.054;2023-07-24T11:37:35;6.63;;;1.60;;
59824;SDS011;45703;50.898;6.054;2023-07-24T11:40:02;4.05;;;1.05;;
59824;SDS011;45703;50.898;6.054;2023-07-24T11:42:39;6.25;;;1.60;;
59824;SDS011;45703;50.898;6.054;2023-07-24T11:45:05;5.60;;;1.35;;
59824;SDS011;45703;50.898;6.054;2023-07-24T11:47:40;5.28;;;1.50;;
59824;SDS011;45703;50.898;6.054;2023-07-24T11:50:09;4.32;;;0.90;;
59824;SDS011;45703;50.898;6.054;2023-07-24T11:52:38;3.70;;;0.93;;
59824;SDS011;45703;50.898;6.054;2023-07-24T11:55:09;4.45;;;0.90;;
59824;SDS011;45703;50.898;6.054;2023-07-24T11:57:35;3.88;;;0.90;;
59824;SDS011;45703;50.898;6.054;2023-07-24T12:00:01;3.95;;;0.88;;
59824;SDS011;45703;50.898;6.054;2023-07-24T12:02:28;3.33;;;0.90;;
59824;SDS011;45703;50.898;6.054;2023-07-24T12:04:55;2.75;;;0.70;;
59824;SDS011;45703;50.898;6.054;2023-07-24T12:07:23;2.45;;;0.60;;
59824;SDS011;45703;50.898;6.054;2023-07-24T12:09:59;3.47;;;0.80;;
59824;SDS011;45703;50.898;6.054;2023-07-24T12:12:38;5.68;;;1.00;;
59824;SDS011;45703;50.898;6.054;2023-07-24T12:15:05;3.20;;;0.88;;
59824;SDS011;45703;50.898;6.054;2023-07-24T12:17:30;4.28;;;0.85;;
59824;SDS011;45703;50.898;6.054;2023-07-24T12:19:56;3.13;;;0.80;;
59824;SDS011;45703;50.898;6.054;2023-07-24T12:22:21;3.28;;;0.80;;
59824;SDS011;45703;50.898;6.054;2023-07-24T12:24:50;5.72;;;0.77;;
59824;SDS011;45703;50.898;6.054;2023-07-24T12:27:15;4.30;;;1.00;;
59824;SDS011;45703;50.898;6.054;2023-07-24T12:29:40;5.22;;;1.30;;
59824;SDS011;45703;50.898;6.054;2023-07-24T12:32:06;3.88;;;1.08;;
59824;SDS011;45703;50.898;6.054;2023-07-24T12:34:31;5.25;;;1.15;;
59824;SDS011;45703;50.898;6.054;2023-07-24T12:36:56;4.28;;;0.95;;
59824;SDS011;45703;50.898;6.054;2023-07-24T12:39:22;4.43;;;1.20;;
59824;SDS011;45703;50.898;6.054;2023-07-24T12:41:48;3.85;;;1.10;;
59824;SDS011;45703;50.898;6.054;2023-07-24T12:44:13;4.72;;;1.10;;
59824;SDS011;45703;50.898;6.054;2023-07-24T12:46:38;4.20;;;1.10;;
59824;SDS011;45703;50.898;6.054;2023-07-24T12:49:04;5.43;;;1.15;;
59824;SDS011;45703;50.898;6.054;2023-07-24T12:51:29;3.25;;;0.80;;
59824;SDS011;45703;50.898;6.054;2023-07-24T12:53:55;4.05;;;1.08;;
59824;SDS011;45703;50.898;6.054;2023-07-24T12:56:21;3.88;;;1.02;;
59824;SDS011;45703;50.898;6.054;2023-07-24T12:58:46;4.72;;;1.33;;
59824;SDS011;45703;50.898;6.054;2023-07-24T13:01:12;5.10;;;1.30;;
59824;SDS011;45703;50.898;6.054;2023-07-24T13:03:37;4.82;;;1.30;;
59824;SDS011;45703;50.898;6.054;2023-07-24T13:06:02;4.25;;;1.20;;
59824;SDS011;45703;50.898;6.054;2023-07-24T13:08:29;3.95;;;1.10;;
59824;SDS011;45703;50.898;6.054;2023-07-24T13:10:54;6.30;;;1.30;;
59824;SDS011;45703;50.898;6.054;2023-07-24T13:13:21;4.70;;;1.20;;
59824;SDS011;45703;50.898;6.054;2023-07-24T13:15:47;4.45;;;1.20;;
59824;SDS011;45703;50.898;6.054;2023-07-24T13:18:15;4.80;;;1.10;;
59824;SDS011;45703;50.898;6.054;2023-07-24T13:20:42;6.05;;;1.20;;
59824;SDS011;45703;50.898;6.054;2023-07-24T13:23:07;5.55;;;1.15;;
59824;SDS011;45703;50.898;6.054;2023-07-24T13:25:32;5.20;;;1.50;;
59824;SDS011;45703;50.898;6.054;2023-07-24T13:27:58;4.70;;;1.40;;
59824;SDS011;45703;50.898;6.054;2023-07-24T13:30:23;4.53;;;1.50;;
59824;SDS011;45703;50.898;6.054;2023-07-24T13:32:49;5.50;;;1.40;;
59824;SDS011;45703;50.898;6.054;2023-07-24T13:35:14;5.50;;;1.50;;
59824;SDS011;45703;50.898;6.054;2023-07-24T13:37:40;6.30;;;1.70;;
59824;SDS011;45703;50.898;6.054;2023-07-24T13:40:06;5.05;;;1.40;;
59824;SDS011;45703;50.898;6.054;2023-07-24T13:42:33;5.00;;;1.58;;
59824;SDS011;45703;50.898;6.054;2023-07-24T13:44:59;4.93;;;1.60;;
59824;SDS011;45703;50.898;6.054;2023-07-24T13:47:24;4.78;;;1.30;;
59824;SDS011;45703;50.898;6.054;2023-07-24T13:49:50;5.25;;;1.33;;
59824;SDS011;45703;50.898;6.054;2023-07-24T13:52:15;5.13;;;1.35;;
59824;SDS011;45703;50.898;6.054;2023-07-24T13:54:41;5.90;;;1.70;;
59824;SDS011;45703;50.898;6.054;2023-07-24T13:57:06;5.90;;;1.88;;
59824;SDS011;45703;50.898;6.054;2023-07-24T13:59:35;5.65;;;1.50;;
59824;SDS011;45703;50.898;6.054;2023-07-24T14:02:03;5.63;;;1.58;;
59824;SDS011;45703;50.898;6.054;2023-07-24T14:04:28;5.57;;;1.77;;
59824;SDS011;45703;50.898;6.054;2023-07-24T14:06:54;6.50;;;1.98;;
59824;SDS011;45703;50.898;6.054;2023-07-24T14:09:19;4.88;;;1.77;;
59824;SDS011;45703;50.898;6.054;2023-07-24T14:11:49;5.13;;;1.55;;
59824;SDS011;45703;50.898;6.054;2023-07-24T14:14:15;6.15;;;1.80;;
59824;SDS011;45703;50.898;6.054;2023-07-24T14:16:42;5.22;;;1.55;;
59824;SDS011;45703;50.898;6.054;2023-07-24T14:19:10;5.07;;;1.60;;
59824;SDS011;45703;50.898;6.054;2023-07-24T14:21:38;5.60;;;1.77;;
59824;SDS011;45703;50.898;6.054;2023-07-24T14:24:03;6.80;;;1.60;;
59824;SDS011;45703;50.898;6.054;2023-07-24T14:26:29;4.72;;;1.60;;
59824;SDS011;45703;50.898;6.054;2023-07-24T14:28:57;5.18;;;1.50;;
59824;SDS011;45703;50.898;6.054;2023-07-24T14:31:23;5.68;;;1.50;;
59824;SDS011;45703;50.898;6.054;2023-07-24T14:33:49;5.55;;;1.70;;
59824;SDS011;45703;50.898;6.054;2023-07-24T14:36:17;4.57;;;1.30;;
59824;SDS011;45703;50.898;6.054;2023-07-24T14:38:45;4.45;;;1.48;;
59824;SDS011;45703;50.898;6.054;2023-07-24T14:41:12;5.30;;;1.40;;
59824;SDS011;45703;50.898;6.054;2023-07-24T14:43:40;4.75;;;1.40;;
59824;SDS011;45703;50.898;6.054;2023-07-24T14:46:08;5.30;;;1.40;;
59824;SDS011;45703;50.898;6.054;2023-07-24T14:48:33;4.90;;;1.20;;
59824;SDS011;45703;50.898;6.054;2023-07-24T14:51:01;4.30;;;1.25;;
59824;SDS011;45703;50.898;6.054;2023-07-24T14:53:29;4.65;;;1.42;;
59824;SDS011;45703;50.898;6.054;2023-07-24T14:55:55;5.93;;;1.60;;